Time;durP1;ratioP1;P1;durP2;ratioP2;P2;SDS_P1;SDS_P2;PMS_P1;PMS_P2;Temp;Humidity;BMP_temperature;BMP_pressure;BME280_temperature;BME280_humidity;BME280_pressure;Samples;Min_cycle;Max_cycle;Signal;HPM_P1;HPM_P2
2022/09/26 00:00:24;;;;;;;4.57;4.10;;;12.40;99.90;;;;;;5083804;28;20674;-49
2022/09/26 00:02:51;;;;;;;3.87;3.60;;;12.40;99.90;;;;;;5083320;28;20193;-49
2022/09/26 00:05:18;;;;;;;3.57;3.30;;;12.30;99.90;;;;;;5080446;28;20203;-49
2022/09/26 00:07:45;;;;;;;3.73;3.53;;;12.30;99.90;;;;;;5081852;28;20201;-49
2022/09/26 00:10:12;;;;;;;4.20;3.90;;;12.30;99.90;;;;;;5088745;28;20231;-50
2022/09/26 00:12:41;;;;;;;3.73;3.50;;;12.30;99.90;;;;;;5087999;28;20223;-49
2022/09/26 00:15:10;;;;;;;4.07;3.73;;;12.30;99.90;;;;;;5090313;28;20200;-50
2022/09/26 00:17:37;;;;;;;3.33;3.13;;;12.20;99.90;;;;;;5087813;28;20257;-49
2022/09/26 00:20:05;;;;;;;3.67;3.33;;;12.20;99.90;;;;;;5082721;28;20228;-49
2022/09/26 00:22:32;;;;;;;2.70;2.60;;;12.30;99.90;;;;;;5091908;28;20211;-50
2022/09/26 00:24:59;;;;;;;3.83;3.20;;;12.20;99.90;;;;;;5092637;28;20206;-50
2022/09/26 00:27:26;;;;;;;3.60;3.50;;;12.30;99.90;;;;;;5095214;28;20196;-50
2022/09/26 00:29:54;;;;;;;3.47;3.30;;;12.30;99.90;;;;;;5087036;28;20709;-50
2022/09/26 00:32:21;;;;;;;4.27;3.97;;;12.20;99.90;;;;;;5089536;28;20592;-53
2022/09/26 00:34:49;;;;;;;3.80;3.50;;;12.30;99.90;;;;;;5089569;28;20199;-50
2022/09/26 00:37:16;;;;;;;3.83;3.63;;;12.20;99.90;;;;;;5090900;28;20203;-49
2022/09/26 00:39:43;;;;;;;3.33;3.23;;;12.20;99.90;;;;;;5090875;28;20232;-49
2022/09/26 00:42:14;;;;;;;4.07;3.77;;;12.20;99.90;;;;;;5082102;28;20252;-49
2022/09/26 00:44:49;;;;;;;3.70;3.40;;;12.20;99.90;;;;;;5086725;28;20262;-49
2022/09/26 00:47:46;;;;;;;4.80;4.60;;;12.20;99.90;;;;;;5089345;28;20199;-48
2022/09/26 00:50:19;;;;;;;3.80;3.60;;;12.30;99.90;;;;;;5081542;28;20221;-49
2022/09/26 00:52:52;;;;;;;3.27;3.07;;;12.30;99.90;;;;;;5090610;28;20242;-49
2022/09/26 00:55:23;;;;;;;12.57;3.83;;;12.40;99.90;;;;;;5084891;28;20207;-49
2022/09/26 00:57:56;;;;;;;3.07;2.80;;;12.30;99.90;;;;;;5091729;28;20197;-49
2022/09/26 01:00:23;;;;;;;2.20;2.10;;;12.20;99.90;;;;;;5087557;28;20212;-48
2022/09/26 01:02:53;;;;;;;2.33;2.23;;;12.20;99.90;;;;;;5080481;28;20329;-49
2022/09/26 01:05:22;;;;;;;3.67;2.30;;;12.10;99.90;;;;;;5087720;28;20204;-49
2022/09/26 01:07:51;;;;;;;2.23;2.13;;;12.10;99.90;;;;;;5077602;28;20199;-49
2022/09/26 01:10:18;;;;;;;2.07;1.97;;;12.00;99.90;;;;;;5081698;28;20207;-49
2022/09/26 01:12:45;;;;;;;2.17;2.07;;;12.00;99.90;;;;;;5084480;28;20222;-48
2022/09/26 01:15:12;;;;;;;2.10;2.00;;;12.00;99.90;;;;;;5088091;28;20197;-49
2022/09/26 01:17:42;;;;;;;2.23;2.03;;;12.00;99.90;;;;;;5094209;28;20196;-49
2022/09/26 01:20:29;;;;;;;2.70;2.57;;;12.00;99.90;;;;;;5094615;28;20231;-49
2022/09/26 01:23:27;;;;;;;2.30;2.20;;;11.90;99.90;;;;;;5088415;28;20667;-49
2022/09/26 01:26:24;;;;;;;2.10;2.00;;;12.00;99.90;;;;;;5085568;28;20212;-52
2022/09/26 01:29:29;;;;;;;2.87;2.70;;;12.00;99.90;;;;;;5070891;28;20231;-50
2022/09/26 01:35:02;;;;;;;2.73;2.53;;;12.00;99.90;;;;;;5084521;28;20834;-49
2022/09/26 01:37:37;;;;;;;2.23;2.13;;;12.00;99.90;;;;;;5086791;28;20198;-48
2022/09/26 01:40:10;;;;;;;2.37;2.17;;;12.00;99.90;;;;;;5082479;28;20285;-49
2022/09/26 01:42:45;;;;;;;2.73;2.57;;;12.00;99.90;;;;;;5087539;28;20214;-49
2022/09/26 01:45:18;;;;;;;2.53;2.43;;;11.90;99.90;;;;;;5086452;28;20196;-51
2022/09/26 01:47:51;;;;;;;2.30;2.20;;;11.90;99.90;;;;;;5085306;28;20205;-49
2022/09/26 01:50:25;;;;;;;2.60;2.50;;;12.00;99.90;;;;;;5093626;28;20212;-49
2022/09/26 01:52:59;;;;;;;2.73;2.63;;;12.00;99.90;;;;;;5093829;28;20223;-50
2022/09/26 01:55:30;;;;;;;2.80;2.40;;;12.00;99.90;;;;;;5092278;28;20624;-48
2022/09/26 01:58:04;;;;;;;2.47;2.27;;;12.00;99.90;;;;;;5082126;28;20207;-49
2022/09/26 02:00:33;;;;;;;2.57;2.47;;;11.90;99.90;;;;;;5088670;28;20207;-49
2022/09/26 02:03:03;;;;;;;2.57;2.47;;;11.90;99.90;;;;;;5085527;28;20195;-48
2022/09/26 02:05:33;;;;;;;2.73;2.63;;;11.90;99.90;;;;;;5093043;28;20204;-50
2022/09/26 02:08:06;;;;;;;2.13;2.03;;;11.90;99.90;;;;;;5093156;28;20192;-50
2022/09/26 02:10:38;;;;;;;3.60;3.40;;;12.00;99.90;;;;;;5093550;28;20201;-49
2022/09/26 02:13:13;;;;;;;2.10;1.80;;;11.90;99.90;;;;;;5091403;28;20706;-48
2022/09/26 02:15:41;;;;;;;1.93;1.83;;;11.90;99.90;;;;;;5078720;28;20980;-50
2022/09/26 02:18:15;;;;;;;2.20;2.10;;;11.90;99.90;;;;;;5083128;28;20220;-49
2022/09/26 02:20:45;;;;;;;2.40;2.30;;;11.90;99.90;;;;;;5090371;28;20196;-49
2022/09/26 02:23:12;;;;;;;2.53;2.40;;;11.90;99.90;;;;;;5092952;28;20203;-48
2022/09/26 02:25:39;;;;;;;2.60;2.50;;;11.90;99.90;;;;;;5093337;28;20624;-49
2022/09/26 02:28:07;;;;;;;1.87;1.77;;;11.90;99.90;;;;;;5089710;28;20216;-50
2022/09/26 02:30:34;;;;;;;2.03;1.93;;;11.90;99.90;;;;;;5076476;28;20588;-49
2022/09/26 02:33:02;;;;;;;2.50;2.30;;;11.90;99.90;;;;;;5081546;28;20240;-50
2022/09/26 02:38:16;;;;;;;2.97;2.77;;;12.00;99.90;;;;;;5077868;28;20254;-50
2022/09/26 02:40:50;;;;;;;4.10;3.67;;;12.00;99.90;;;;;;5087773;28;20201;-50
2022/09/26 02:43:47;;;;;;;3.00;2.90;;;12.00;99.90;;;;;;5092563;28;20283;-49
2022/09/26 02:46:38;;;;;;;3.53;3.43;;;12.00;99.90;;;;;;5088603;28;20207;-49
2022/09/26 02:49:18;;;;;;;4.60;3.07;;;12.10;99.90;;;;;;5084886;28;20715;-49
2022/09/26 02:52:02;;;;;;;3.83;3.50;;;12.10;99.90;;;;;;5089628;28;20225;-49
2022/09/26 02:54:40;;;;;;;4.17;3.87;;;12.00;99.90;;;;;;5088756;28;20209;-50
2022/09/26 02:57:21;;;;;;;2.97;2.87;;;12.10;99.90;;;;;;5072749;28;20209;-49
2022/09/26 02:59:58;;;;;;;4.03;3.73;;;12.10;99.90;;;;;;5076019;28;20257;-50
2022/09/26 03:02:31;;;;;;;4.03;3.80;;;12.10;99.90;;;;;;5092245;28;20198;-49
2022/09/26 03:05:02;;;;;;;2.97;2.87;;;12.00;99.90;;;;;;5086283;28;20670;-50
2022/09/26 03:07:35;;;;;;;3.23;3.03;;;12.00;99.90;;;;;;5087021;28;20267;-49
2022/09/26 03:10:05;;;;;;;3.03;2.83;;;12.00;99.90;;;;;;5083964;28;20226;-49
2022/09/26 03:12:33;;;;;;;3.27;3.07;;;12.00;99.90;;;;;;5086290;28;20276;-50
2022/09/26 03:15:03;;;;;;;3.30;3.20;;;11.90;99.90;;;;;;5080703;28;21982;-49
2022/09/26 03:17:33;;;;;;;3.47;3.27;;;11.90;99.90;;;;;;5087662;28;20287;-50
2022/09/26 03:20:04;;;;;;;3.97;3.77;;;11.90;99.90;;;;;;5092079;28;20295;-50
2022/09/26 03:22:33;;;;;;;4.43;4.10;;;11.90;99.90;;;;;;5092098;28;20203;-49
2022/09/26 03:25:00;;;;;;;3.73;3.53;;;11.80;99.90;;;;;;5086754;28;20198;-49
2022/09/26 03:27:28;;;;;;;3.83;3.50;;;11.80;99.90;;;;;;5082810;28;20201;-49
2022/09/26 03:29:55;;;;;;;4.47;3.73;;;11.80;99.90;;;;;;5091437;28;20224;-49
2022/09/26 03:32:22;;;;;;;3.80;3.53;;;11.80;99.90;;;;;;5084242;28;20743;-49
2022/09/26 03:34:50;;;;;;;3.53;3.23;;;11.80;99.90;;;;;;5090171;28;20206;-49
2022/09/26 03:37:17;;;;;;;3.60;3.07;;;11.80;99.90;;;;;;5092198;28;20196;-49
2022/09/26 03:39:45;;;;;;;4.00;3.70;;;11.90;99.90;;;;;;5090450;28;20223;-49
2022/09/26 03:42:13;;;;;;;3.37;3.20;;;11.90;99.90;;;;;;5089619;28;20248;-49
2022/09/26 03:44:41;;;;;;;3.60;2.83;;;11.90;99.90;;;;;;5091306;28;20757;-49
2022/09/26 03:47:08;;;;;;;2.77;2.67;;;11.90;99.90;;;;;;5088967;28;20228;-49
2022/09/26 03:49:35;;;;;;;3.07;2.80;;;11.80;99.90;;;;;;5091634;28;20280;-49
2022/09/26 03:52:03;;;;;;;3.03;2.83;;;11.80;99.90;;;;;;5091282;28;20288;-49
2022/09/26 03:54:30;;;;;;;3.43;3.23;;;11.80;99.90;;;;;;5085156;28;20203;-49
2022/09/26 03:56:58;;;;;;;3.17;3.07;;;11.80;99.90;;;;;;5090986;28;20195;-49
2022/09/26 03:59:25;;;;;;;3.37;3.23;;;11.80;99.90;;;;;;5087084;28;20283;-49
2022/09/26 04:01:53;;;;;;;3.03;2.83;;;11.90;99.90;;;;;;5086735;28;20199;-49
2022/09/26 04:04:20;;;;;;;2.90;2.80;;;11.90;99.90;;;;;;5091363;28;20323;-49
2022/09/26 04:06:49;;;;;;;2.57;2.47;;;11.90;99.90;;;;;;5084257;28;20200;-49
2022/09/26 04:09:17;;;;;;;2.77;2.67;;;11.90;99.90;;;;;;5087393;28;20218;-49
2022/09/26 04:11:45;;;;;;;3.27;3.10;;;11.80;99.90;;;;;;5087104;28;20663;-50
2022/09/26 04:14:13;;;;;;;3.40;3.23;;;11.90;99.90;;;;;;5082568;28;20223;-51
2022/09/26 04:16:40;;;;;;;3.30;3.17;;;11.80;99.90;;;;;;5086643;28;20654;-49
2022/09/26 04:19:07;;;;;;;3.17;2.90;;;11.90;99.90;;;;;;5088415;28;20228;-50
2022/09/26 04:21:35;;;;;;;3.10;3.00;;;11.80;99.90;;;;;;5078236;28;20205;-50
2022/09/26 04:24:02;;;;;;;3.30;3.17;;;11.80;99.90;;;;;;5082349;28;20281;-50
2022/09/26 04:26:29;;;;;;;2.13;2.13;;;11.80;99.90;;;;;;5091428;28;20197;-49
2022/09/26 04:28:58;;;;;;;2.53;2.33;;;11.80;99.90;;;;;;5091342;28;20701;-49
2022/09/26 04:31:27;;;;;;;2.63;2.50;;;11.80;99.90;;;;;;5083599;28;20209;-49
2022/09/26 04:33:55;;;;;;;2.60;2.40;;;11.80;99.90;;;;;;5090747;28;20705;-50
2022/09/26 04:36:22;;;;;;;2.10;2.00;;;11.70;99.90;;;;;;5087109;28;20292;-50
2022/09/26 04:38:49;;;;;;;2.60;2.50;;;11.70;99.90;;;;;;5090132;28;20230;-49
2022/09/26 04:41:18;;;;;;;2.90;2.70;;;11.70;99.90;;;;;;5089950;28;20203;-49
2022/09/26 04:43:45;;;;;;;3.53;3.40;;;11.70;99.90;;;;;;5089583;28;20287;-50
2022/09/26 04:46:14;;;;;;;3.03;2.83;;;11.70;99.90;;;;;;5087213;28;20199;-50
2022/09/26 04:48:43;;;;;;;3.03;2.87;;;11.70;99.90;;;;;;5086416;28;20226;-49
2022/09/26 04:51:12;;;;;;;2.90;2.80;;;11.70;99.90;;;;;;5084133;28;20198;-49
2022/09/26 04:53:40;;;;;;;2.27;2.17;;;11.70;99.90;;;;;;5091081;28;20308;-49
2022/09/26 04:56:09;;;;;;;2.90;2.30;;;11.70;99.90;;;;;;5091711;28;20261;-49
2022/09/26 04:58:36;;;;;;;2.30;2.20;;;11.70;99.90;;;;;;5094987;28;20234;-49
2022/09/26 05:01:05;;;;;;;2.30;2.20;;;11.70;99.90;;;;;;5093403;28;20201;-49
2022/09/26 05:03:34;;;;;;;2.53;2.33;;;11.70;99.90;;;;;;5093114;28;20203;-50
2022/09/26 05:06:03;;;;;;;2.40;2.20;;;11.60;99.90;;;;;;5091484;28;20193;-51
2022/09/26 05:08:34;;;;;;;2.57;2.47;;;11.60;99.90;;;;;;5091082;28;20311;-50
2022/09/26 05:11:02;;;;;;;2.20;2.10;;;11.60;99.90;;;;;;5074515;28;20197;-50
2022/09/26 05:13:30;;;;;;;2.30;2.20;;;11.60;99.90;;;;;;5074060;28;20586;-50
2022/09/26 05:15:59;;;;;;;2.20;2.10;;;11.50;99.90;;;;;;5077017;28;20324;-50
2022/09/26 05:18:30;;;;;;;2.97;2.87;;;11.50;99.90;;;;;;5092707;28;20604;-49
2022/09/26 05:21:00;;;;;;;2.43;2.23;;;11.50;99.90;;;;;;5092362;28;20198;-50
2022/09/26 05:26:20;;;;;;;3.13;1.87;;;11.50;99.90;;;;;;5088219;28;20219;-50
2022/09/26 05:28:48;;;;;;;2.70;2.50;;;11.50;99.90;;;;;;5094190;28;20603;-49
2022/09/26 05:31:16;;;;;;;2.07;1.97;;;11.50;99.90;;;;;;5090604;28;20199;-51
2022/09/26 05:33:43;;;;;;;1.93;1.83;;;11.40;99.90;;;;;;5087649;28;20217;-50
2022/09/26 05:36:10;;;;;;;2.73;2.53;;;11.40;99.90;;;;;;5087410;28;20237;-51
2022/09/26 05:38:39;;;;;;;1.80;1.70;;;11.50;99.90;;;;;;5091906;28;20219;-50
2022/09/26 05:41:05;;;;;;;2.00;1.90;;;11.50;99.90;;;;;;5073994;28;20201;-50
2022/09/26 05:43:33;;;;;;;1.77;1.67;;;11.40;99.90;;;;;;5085609;28;20218;-50
2022/09/26 05:46:02;;;;;;;1.70;1.70;;;11.30;99.90;;;;;;5090236;28;20204;-51
2022/09/26 05:48:31;;;;;;;2.40;1.47;;;11.30;99.90;;;;;;5085200;28;20231;-50
2022/09/26 05:51:03;;;;;;;1.53;1.43;;;11.30;99.90;;;;;;5092804;28;20343;-50
2022/09/26 05:53:30;;;;;;;1.70;1.60;;;11.40;99.90;;;;;;5100237;28;20305;-51
2022/09/26 05:55:58;;;;;;;1.50;1.40;;;11.40;99.90;;;;;;5100823;28;20195;-50
2022/09/26 05:58:31;;;;;;;1.97;1.80;;;11.40;99.90;;;;;;5103100;28;20295;-51
2022/09/26 06:01:03;;;;;;;2.10;2.00;;;11.30;99.90;;;;;;5095430;28;20289;-50
2022/09/26 06:03:33;;;;;;;2.33;1.57;;;11.30;99.90;;;;;;5081380;28;20199;-51
2022/09/26 06:06:04;;;;;;;2.40;2.20;;;11.40;99.90;;;;;;5083524;28;20202;-50
2022/09/26 06:08:32;;;;;;;2.63;1.60;;;11.50;99.90;;;;;;5093286;28;20890;-49
2022/09/26 06:11:02;;;;;;;1.80;1.70;;;11.60;99.90;;;;;;5093751;28;20203;-50
2022/09/26 06:13:30;;;;;;;1.47;1.33;;;11.60;99.90;;;;;;5089928;28;20230;-50
2022/09/26 06:16:02;;;;;;;1.93;1.83;;;11.60;99.90;;;;;;5086720;28;20253;-50
2022/09/26 06:18:30;;;;;;;1.63;1.53;;;11.60;99.90;;;;;;5088167;28;20597;-49
2022/09/26 06:20:57;;;;;;;1.67;1.57;;;11.60;99.90;;;;;;5083630;28;20250;-50
2022/09/26 06:23:24;;;;;;;1.27;1.27;;;11.70;99.90;;;;;;5092984;28;20252;-50
2022/09/26 06:25:51;;;;;;;1.57;1.30;;;11.60;99.90;;;;;;5088013;28;20254;-51
2022/09/26 06:28:19;;;;;;;3.87;1.90;;;11.60;99.90;;;;;;5072992;28;20223;-49
2022/09/26 06:30:46;;;;;;;2.07;1.97;;;11.60;99.90;;;;;;5082800;28;20207;-51
2022/09/26 06:33:13;;;;;;;3.00;2.47;;;11.60;99.90;;;;;;5074198;28;20219;-50
2022/09/26 06:35:40;;;;;;;2.00;1.90;;;11.60;99.90;;;;;;5090002;28;20199;-50
2022/09/26 06:38:08;;;;;;;2.20;2.10;;;11.60;99.90;;;;;;5085386;28;20222;-50
2022/09/26 06:40:35;;;;;;;1.60;1.60;;;11.60;99.90;;;;;;5090495;28;20196;-50
2022/09/26 06:43:02;;;;;;;2.47;2.37;;;11.50;99.90;;;;;;5084381;28;20199;-50
2022/09/26 06:45:30;;;;;;;2.50;2.40;;;11.50;99.90;;;;;;5090017;28;20198;-50
2022/09/26 06:48:00;;;;;;;2.30;2.20;;;11.60;99.90;;;;;;5090391;28;20211;-50
2022/09/26 06:50:27;;;;;;;2.83;2.63;;;11.60;99.90;;;;;;5092704;28;20211;-51
2022/09/26 06:52:54;;;;;;;2.07;1.97;;;11.70;99.90;;;;;;5079147;28;20199;-50
2022/09/26 06:55:22;;;;;;;2.00;1.90;;;11.70;99.90;;;;;;5092314;28;20203;-50
2022/09/26 06:57:49;;;;;;;2.13;2.03;;;11.60;99.90;;;;;;5092695;28;20210;-51
2022/09/26 07:00:16;;;;;;;4.33;2.40;;;11.60;99.90;;;;;;5092613;28;20250;-50
2022/09/26 07:02:52;;;;;;;2.80;2.10;;;11.60;99.90;;;;;;5088961;28;20261;-51
2022/09/26 07:05:19;;;;;;;2.50;2.13;;;11.50;99.90;;;;;;5091426;28;20891;-49
2022/09/26 07:07:47;;;;;;;2.00;1.90;;;11.50;99.90;;;;;;5092450;28;20202;-50
2022/09/26 07:10:17;;;;;;;4.00;2.35;;;11.50;99.90;;;;;;5085385;28;20883;-50
2022/09/26 07:12:46;;;;;;;2.33;2.20;;;11.50;99.90;;;;;;5092410;28;20198;-50
2022/09/26 07:15:14;;;;;;;2.43;2.23;;;11.60;99.90;;;;;;5084448;28;20207;-51
2022/09/26 07:17:42;;;;;;;2.30;2.20;;;11.60;99.90;;;;;;5092157;28;20564;-50
2022/09/26 07:20:12;;;;;;;1.97;1.70;;;11.60;99.90;;;;;;5083482;28;20197;-50
2022/09/26 07:22:39;;;;;;;2.70;2.50;;;11.70;99.90;;;;;;5084356;28;20685;-51
2022/09/26 07:25:07;;;;;;;2.70;2.60;;;11.70;99.90;;;;;;5084834;28;20196;-50
2022/09/26 07:27:34;;;;;;;3.30;2.03;;;11.70;99.90;;;;;;5092010;28;20252;-51
2022/09/26 07:30:01;;;;;;;2.07;1.97;;;11.70;99.90;;;;;;5089258;28;22251;-51
2022/09/26 07:32:29;;;;;;;2.40;2.20;;;11.80;99.90;;;;;;5080770;28;20690;-51
2022/09/26 07:34:58;;;;;;;2.53;2.33;;;11.80;99.90;;;;;;5080590;28;20257;-51
2022/09/26 07:37:28;;;;;;;3.60;2.50;;;11.90;99.90;;;;;;5082168;28;20197;-51
2022/09/26 07:39:55;;;;;;;2.53;2.13;;;11.90;99.90;;;;;;5087467;28;20276;-50
2022/09/26 07:42:22;;;;;;;3.27;2.40;;;12.00;99.90;;;;;;5088587;28;20205;-50
2022/09/26 07:44:49;;;;;;;2.70;2.60;;;12.20;99.90;;;;;;5084797;28;20661;-51
2022/09/26 07:50:13;;;;;;;4.33;3.00;;;12.20;99.90;;;;;;5089354;28;20248;-50
2022/09/26 07:52:44;;;;;;;3.07;2.87;;;12.20;99.90;;;;;;5082063;28;20252;-50
2022/09/26 07:55:13;;;;;;;2.57;2.37;;;12.30;99.90;;;;;;5077302;28;20272;-50
2022/09/26 07:57:40;;;;;;;2.20;2.10;;;12.20;99.90;;;;;;5086650;28;20665;-50
2022/09/26 08:00:11;;;;;;;2.93;2.50;;;12.20;99.90;;;;;;5085525;28;20278;-51
2022/09/26 08:02:41;;;;;;;2.77;2.67;;;12.20;99.90;;;;;;5091981;28;20218;-51
2022/09/26 08:05:10;;;;;;;3.03;2.80;;;12.30;99.90;;;;;;5085392;28;20569;-50
2022/09/26 08:07:37;;;;;;;2.43;2.20;;;12.30;99.90;;;;;;5086300;28;20614;-51
2022/09/26 08:10:07;;;;;;;3.17;2.20;;;12.40;99.90;;;;;;5089705;28;20220;-50
2022/09/26 08:12:36;;;;;;;2.83;2.40;;;12.30;99.90;;;;;;5091692;28;20200;-50
2022/09/26 08:15:05;;;;;;;2.03;1.73;;;12.30;99.90;;;;;;5085515;28;20452;-50
2022/09/26 08:17:32;;;;;;;2.67;2.40;;;12.20;99.90;;;;;;5091478;28;20199;-51
2022/09/26 08:19:59;;;;;;;3.50;3.10;;;12.30;99.90;;;;;;5091674;28;20227;-50
2022/09/26 08:22:26;;;;;;;2.20;2.10;;;12.40;99.90;;;;;;5086739;28;20204;-50
2022/09/26 08:24:54;;;;;;;5.07;4.63;;;12.30;99.90;;;;;;5087631;28;20223;-50
2022/09/26 08:27:22;;;;;;;5.50;3.83;;;12.30;99.90;;;;;;5091644;28;20286;-50
2022/09/26 08:29:49;;;;;;;3.70;3.47;;;12.30;99.90;;;;;;5091456;28;20216;-50
2022/09/26 08:32:17;;;;;;;2.97;2.77;;;12.30;99.90;;;;;;5093966;28;20208;-51
2022/09/26 08:34:45;;;;;;;3.53;3.23;;;12.40;99.90;;;;;;5092471;28;20227;-50
2022/09/26 08:37:13;;;;;;;5.07;2.87;;;12.50;99.90;;;;;;5095291;28;20199;-50
2022/09/26 08:39:40;;;;;;;4.77;3.33;;;12.60;99.90;;;;;;5085178;28;20228;-50
2022/09/26 08:42:27;;;;;;;1.77;1.67;;;12.70;99.90;;;;;;5095312;28;20212;-50
2022/09/26 08:48:04;;;;;;;1.27;1.13;;;12.80;99.90;;;;;;5094746;28;20201;-51
2022/09/26 08:50:41;;;;;;;1.60;1.50;;;12.90;99.90;;;;;;5095117;28;20675;-50
2022/09/26 08:53:13;;;;;;;1.70;1.07;;;13.00;99.90;;;;;;5091570;28;20214;-51
2022/09/26 08:55:44;;;;;;;0.63;0.63;;;12.90;99.90;;;;;;5084385;28;20230;-50
2022/09/26 08:58:17;;;;;;;1.03;0.80;;;12.90;99.90;;;;;;5091163;28;20224;-50
2022/09/26 09:00:48;;;;;;;5.03;0.90;;;12.80;99.90;;;;;;5092599;28;20206;-50
2022/09/26 09:03:25;;;;;;;0.70;0.70;;;12.80;99.90;;;;;;5092293;28;20269;-51
2022/09/26 09:05:56;;;;;;;0.83;0.80;;;12.90;99.90;;;;;;5093460;28;20204;-50
2022/09/26 09:08:25;;;;;;;6.33;0.90;;;12.90;99.90;;;;;;5094796;28;20220;-51
2022/09/26 09:11:01;;;;;;;0.63;0.63;;;13.00;99.90;;;;;;5094712;28;20196;-49
2022/09/26 09:13:41;;;;;;;2.80;0.60;;;13.00;99.90;;;;;;5088332;28;20242;-49
2022/09/26 09:16:28;;;;;;;0.30;0.30;;;13.10;99.90;;;;;;5093356;28;20203;-50
2022/09/26 09:19:04;;;;;;;0.40;0.40;;;13.20;99.90;;;;;;5094603;28;20220;-49
2022/09/26 09:21:41;;;;;;;0.30;0.30;;;13.20;99.90;;;;;;5094501;28;20200;-50
2022/09/26 09:24:18;;;;;;;0.67;0.60;;;13.00;99.90;;;;;;5094146;28;20670;-50
2022/09/26 09:26:59;;;;;;;0.57;0.57;;;13.00;99.90;;;;;;5087559;28;20207;-50
2022/09/26 09:29:43;;;;;;;1.20;1.20;;;13.00;99.90;;;;;;5081305;28;20224;-50
2022/09/26 09:32:15;;;;;;;0.50;0.50;;;12.80;99.90;;;;;;5087125;28;20256;-49
2022/09/26 09:34:46;;;;;;;0.40;0.40;;;12.70;99.90;;;;;;5093610;28;20765;-49
2022/09/26 09:37:16;;;;;;;0.53;0.53;;;12.60;99.90;;;;;;5087328;28;20254;-49
2022/09/26 09:39:45;;;;;;;0.80;0.80;;;12.60;99.90;;;;;;5074218;28;20223;-50
2022/09/26 09:42:22;;;;;;;1.13;1.13;;;12.70;99.90;;;;;;5073569;28;20198;-50
2022/09/26 09:44:55;;;;;;;1.90;1.03;;;12.70;99.90;;;;;;5074677;28;20658;-49
2022/09/26 09:47:27;;;;;;;2.47;0.70;;;12.60;99.90;;;;;;5094078;28;20204;-49
2022/09/26 09:49:55;;;;;;;0.50;0.50;;;12.60;99.90;;;;;;5093843;28;20269;-50
2022/09/26 09:52:38;;;;;;;0.90;0.90;;;12.50;99.90;;;;;;5094003;28;20205;-50
2022/09/26 09:55:17;;;;;;;0.87;0.80;;;12.50;99.90;;;;;;5079232;28;20273;-49
2022/09/26 09:57:59;;;;;;;1.57;1.00;;;12.40;99.90;;;;;;5073828;28;20266;-50
2022/09/26 10:00:27;;;;;;;1.80;0.63;;;12.50;99.90;;;;;;5073055;28;20700;-50
2022/09/26 10:02:59;;;;;;;1.57;1.00;;;12.50;99.90;;;;;;5093159;28;20228;-49
2022/09/26 10:05:40;;;;;;;0.50;0.50;;;12.50;99.90;;;;;;5093547;28;20238;-50
2022/09/26 10:08:12;;;;;;;1.80;1.10;;;12.50;99.90;;;;;;5093497;28;20231;-50
2022/09/26 10:10:42;;;;;;;0.80;0.80;;;12.60;99.90;;;;;;5091298;28;20217;-50
2022/09/26 10:13:10;;;;;;;0.77;0.77;;;12.70;99.90;;;;;;5073140;28;20207;-50
2022/09/26 10:15:43;;;;;;;0.40;0.40;;;12.80;99.90;;;;;;5073201;28;20315;-50
2022/09/26 10:18:17;;;;;;;0.50;0.40;;;12.80;99.90;;;;;;5085408;28;20215;-49
2022/09/26 10:20:52;;;;;;;0.33;0.30;;;12.90;99.90;;;;;;5093389;28;20619;-49
2022/09/26 10:23:26;;;;;;;1.17;0.40;;;12.90;99.90;;;;;;5093038;28;20665;-50
2022/09/26 10:25:58;;;;;;;0.53;0.53;;;13.00;99.90;;;;;;5093260;28;20200;-51
2022/09/26 10:28:34;;;;;;;0.73;0.50;;;13.10;99.90;;;;;;5083987;28;20231;-50
2022/09/26 10:31:09;;;;;;;0.53;0.40;;;13.30;99.90;;;;;;5072807;28;20216;-49
2022/09/26 10:33:43;;;;;;;0.40;0.40;;;13.60;99.90;;;;;;5072160;28;20285;-50
2022/09/26 10:36:18;;;;;;;0.40;0.40;;;14.00;99.90;;;;;;5085892;28;20273;-50
2022/09/26 10:41:43;;;;;;;0.70;0.70;;;15.00;99.90;;;;;;5074656;28;20262;-50
2022/09/26 10:44:23;;;;;;;1.10;1.10;;;15.40;99.90;;;;;;5085054;28;20192;-50
2022/09/26 10:46:52;;;;;;;0.50;0.50;;;15.50;99.90;;;;;;5089115;28;20261;-49
2022/09/26 10:49:27;;;;;;;0.60;0.60;;;15.80;99.90;;;;;;5085710;28;20232;-49
2022/09/26 10:52:03;;;;;;;1.83;1.73;;;15.80;99.90;;;;;;5078609;28;20262;-50
2022/09/26 10:54:40;;;;;;;23.27;6.90;;;15.50;99.90;;;;;;5082165;28;20704;-50
2022/09/26 10:57:18;;;;;;;2.80;2.70;;;15.60;99.90;;;;;;5072484;28;20666;-50
2022/09/26 10:59:46;;;;;;;2.03;2.00;;;15.50;99.90;;;;;;5082831;28;20216;-49
2022/09/26 11:02:20;;;;;;;1.37;1.37;;;15.30;99.90;;;;;;5085088;28;20201;-49
2022/09/26 11:07:41;;;;;;;0.80;0.80;;;15.30;99.90;;;;;;5088963;28;20253;-49
2022/09/26 11:10:12;;;;;;;0.93;0.80;;;15.40;99.90;;;;;;5092344;28;20256;-50
2022/09/26 11:12:56;;;;;;;1.73;1.20;;;15.60;99.90;;;;;;5085831;28;20228;-49
2022/09/26 11:15:24;;;;;;;1.17;0.90;;;15.80;99.90;;;;;;5092113;28;20216;-49
2022/09/26 11:17:52;;;;;;;0.80;0.80;;;15.80;99.90;;;;;;5092254;28;20204;-50
2022/09/26 11:20:45;;;;;;;0.90;0.90;;;15.80;99.90;;;;;;5075650;28;20209;-50
2022/09/26 11:23:21;;;;;;;0.83;0.83;;;15.60;99.90;;;;;;5067800;28;20575;-50
2022/09/26 11:25:54;;;;;;;0.67;0.67;;;15.70;99.90;;;;;;5073222;28;20603;-50
2022/09/26 11:28:31;;;;;;;1.37;0.70;;;15.80;99.90;;;;;;5092026;28;20227;-50
2022/09/26 11:31:04;;;;;;;0.90;0.90;;;15.90;99.90;;;;;;5092170;28;20195;-48
2022/09/26 11:33:31;;;;;;;0.60;0.60;;;16.00;99.90;;;;;;5091810;28;20573;-50
2022/09/26 11:36:16;;;;;;;1.37;1.37;;;16.00;99.90;;;;;;5086711;28;20224;-49
2022/09/26 11:38:46;;;;;;;5.23;4.93;;;15.90;99.90;;;;;;5071675;28;20220;-50
2022/09/26 11:41:36;;;;;;;1.40;1.20;;;16.10;99.90;;;;;;5071538;28;20667;-49
2022/09/26 11:44:43;;;;;;;1.03;1.03;;;16.20;99.90;;;;;;5083870;28;20195;-50
2022/09/26 11:47:48;;;;;;;1.17;1.03;;;16.10;99.90;;;;;;5091693;28;20597;-49
2022/09/26 11:50:46;;;;;;;0.70;0.70;;;16.20;99.90;;;;;;5047852;28;20674;-50
2022/09/26 11:53:38;;;;;;;0.87;0.87;;;16.20;99.90;;;;;;5055841;28;20209;-49
2022/09/26 11:56:28;;;;;;;0.43;0.40;;;16.10;99.90;;;;;;5071468;28;20262;-49
2022/09/26 11:59:05;;;;;;;1.07;0.80;;;16.20;99.90;;;;;;5075065;28;20624;-50
2022/09/26 12:01:45;;;;;;;0.60;0.60;;;16.10;99.90;;;;;;5083363;28;20204;-48
2022/09/26 12:04:54;;;;;;;0.60;0.60;;;16.00;99.90;;;;;;5084645;28;20858;-50
2022/09/26 12:07:32;;;;;;;0.70;0.70;;;16.10;99.90;;;;;;5073174;28;20204;-50
2022/09/26 12:10:13;;;;;;;0.40;0.40;;;16.00;99.90;;;;;;5087861;28;20491;-50
2022/09/26 12:12:50;;;;;;;0.70;0.60;;;16.00;99.90;;;;;;5090302;28;20200;-49
2022/09/26 12:15:22;;;;;;;0.50;0.50;;;16.00;99.90;;;;;;5090864;28;20255;-49
2022/09/26 12:18:00;;;;;;;2.43;0.60;;;16.00;99.90;;;;;;5087977;28;20719;-48
2022/09/26 12:20:35;;;;;;;0.67;0.67;;;16.00;99.90;;;;;;5092665;28;20200;-49
2022/09/26 12:23:16;;;;;;;0.90;0.90;;;16.00;99.90;;;;;;5074997;28;20293;-49
2022/09/26 12:25:54;;;;;;;0.80;0.80;;;16.00;99.90;;;;;;5075497;28;20225;-49
2022/09/26 12:28:49;;;;;;;1.40;0.70;;;16.10;99.90;;;;;;5087475;28;20303;-49
2022/09/26 12:31:25;;;;;;;1.50;0.90;;;16.10;99.90;;;;;;5085906;28;20208;-49
2022/09/26 12:34:07;;;;;;;0.70;0.70;;;16.20;99.90;;;;;;5082308;28;20200;-48
2022/09/26 12:36:46;;;;;;;0.90;0.90;;;16.20;99.90;;;;;;5094927;28;20631;-49
2022/09/26 12:39:47;;;;;;;0.80;0.80;;;16.20;99.90;;;;;;5094974;28;20228;-49
2022/09/26 12:42:36;;;;;;;0.70;0.70;;;16.30;99.90;;;;;;5094847;28;20211;-49
2022/09/26 12:45:26;;;;;;;0.60;0.60;;;16.30;99.90;;;;;;5085423;28;20227;-49
2022/09/26 12:48:08;;;;;;;0.97;0.97;;;16.40;99.90;;;;;;5087862;28;20208;-50
2022/09/26 12:50:48;;;;;;;0.73;0.60;;;16.50;99.90;;;;;;5094295;28;20888;-49
2022/09/26 12:53:37;;;;;;;0.63;0.63;;;16.70;99.90;;;;;;5094598;28;20204;-49
2022/09/26 12:56:08;;;;;;;1.13;1.00;;;16.90;99.90;;;;;;5094973;28;20224;-49
2022/09/26 12:58:54;;;;;;;0.87;0.87;;;16.80;99.90;;;;;;5094882;28;20220;-49
2022/09/26 13:01:43;;;;;;;0.60;0.60;;;16.70;99.90;;;;;;5086703;28;20209;-49
2022/09/26 13:04:29;;;;;;;1.50;1.17;;;16.50;99.90;;;;;;5087023;28;20215;-49
2022/09/26 13:07:26;;;;;;;0.70;0.70;;;16.50;99.90;;;;;;5094614;28;20196;-49
2022/09/26 13:10:18;;;;;;;1.73;0.80;;;16.60;99.90;;;;;;5094448;28;20266;-50
2022/09/26 13:13:23;;;;;;;1.07;0.60;;;16.50;99.90;;;;;;5094712;28;20205;-49
2022/09/26 13:16:05;;;;;;;0.70;0.70;;;16.60;99.90;;;;;;5071916;28;20722;-49
2022/09/26 13:18:43;;;;;;;0.50;0.50;;;16.70;99.90;;;;;;5079894;28;20228;-49
2022/09/26 13:21:15;;;;;;;0.93;0.93;;;16.70;99.90;;;;;;5087316;28;20701;-49
2022/09/26 13:23:52;;;;;;;0.67;0.67;;;16.70;99.90;;;;;;5094086;28;20622;-48
2022/09/26 13:26:27;;;;;;;0.60;0.60;;;16.60;99.90;;;;;;5094517;28;20223;-50
2022/09/26 13:29:02;;;;;;;0.83;0.60;;;16.60;99.90;;;;;;5094034;28;20227;-49
2022/09/26 13:31:38;;;;;;;0.73;0.73;;;16.70;99.90;;;;;;5090831;28;20199;-49
2022/09/26 13:34:14;;;;;;;0.80;0.70;;;16.80;99.90;;;;;;5073546;28;20287;-49
2022/09/26 13:36:43;;;;;;;1.07;0.87;;;16.90;99.90;;;;;;5091195;28;20273;-49